sensor_id;sensor_type;location;lat;lon;timestamp;P1;durP1;ratioP1;P2;durP2;ratioP2
12816;SDS011;6473;51.552;6.716;2023-03-14T00:01:16;3.03;;;1.33;;
12816;SDS011;6473;51.552;6.716;2023-03-14T00:03:46;5.38;;;1.52;;
12816;SDS011;6473;51.552;6.716;2023-03-14T00:06:14;2.90;;;1.42;;
12816;SDS011;6473;51.552;6.716;2023-03-14T00:08:42;4.95;;;2.25;;
12816;SDS011;6473;51.552;6.716;2023-03-14T00:11:17;5.60;;;1.80;;
12816;SDS011;6473;51.552;6.716;2023-03-14T00:13:46;6.35;;;1.83;;
12816;SDS011;6473;51.552;6.716;2023-03-14T00:16:13;3.15;;;1.23;;
12816;SDS011;6473;51.552;6.716;2023-03-14T00:18:40;2.42;;;1.40;;
12816;SDS011;6473;51.552;6.716;2023-03-14T00:21:10;2.72;;;1.48;;
12816;SDS011;6473;51.552;6.716;2023-03-14T00:23:39;5.50;;;1.60;;
12816;SDS011;6473;51.552;6.716;2023-03-14T00:26:07;3.88;;;1.85;;
12816;SDS011;6473;51.552;6.716;2023-03-14T00:28:35;4.88;;;1.67;;
12816;SDS011;6473;51.552;6.716;2023-03-14T00:31:03;4.75;;;1.70;;
12816;SDS011;6473;51.552;6.716;2023-03-14T00:33:32;2.38;;;1.48;;
12816;SDS011;6473;51.552;6.716;2023-03-14T00:36:00;5.68;;;1.70;;
12816;SDS011;6473;51.552;6.716;2023-03-14T00:38:31;5.68;;;1.67;;
12816;SDS011;6473;51.552;6.716;2023-03-14T00:40:58;5.50;;;1.88;;
12816;SDS011;6473;51.552;6.716;2023-03-14T00:43:25;3.78;;;1.95;;
12816;SDS011;6473;51.552;6.716;2023-03-14T00:45:53;3.75;;;1.80;;
12816;SDS011;6473;51.552;6.716;2023-03-14T00:48:20;3.38;;;1.70;;
12816;SDS011;6473;51.552;6.716;2023-03-14T00:50:48;2.92;;;1.63;;
12816;SDS011;6473;51.552;6.716;2023-03-14T00:53:15;3.45;;;1.60;;
12816;SDS011;6473;51.552;6.716;2023-03-14T00:55:44;3.40;;;1.95;;
12816;SDS011;6473;51.552;6.716;2023-03-14T00:58:12;4.20;;;1.80;;
12816;SDS011;6473;51.552;6.716;2023-03-14T01:00:41;4.93;;;2.00;;
12816;SDS011;6473;51.552;6.716;2023-03-14T01:03:08;5.75;;;1.70;;
12816;SDS011;6473;51.552;6.716;2023-03-14T01:05:36;4.70;;;1.55;;
12816;SDS011;6473;51.552;6.716;2023-03-14T01:08:03;3.40;;;1.63;;
12816;SDS011;6473;51.552;6.716;2023-03-14T01:10:33;3.92;;;1.50;;
12816;SDS011;6473;51.552;6.716;2023-03-14T01:13:01;3.90;;;1.52;;
12816;SDS011;6473;51.552;6.716;2023-03-14T01:15:28;3.20;;;1.35;;
12816;SDS011;6473;51.552;6.716;2023-03-14T01:17:55;4.38;;;1.50;;
12816;SDS011;6473;51.552;6.716;2023-03-14T01:20:22;3.05;;;1.42;;
12816;SDS011;6473;51.552;6.716;2023-03-14T01:22:49;1.85;;;1.30;;
12816;SDS011;6473;51.552;6.716;2023-03-14T01:25:16;4.57;;;1.10;;
12816;SDS011;6473;51.552;6.716;2023-03-14T01:27:43;4.32;;;1.70;;
12816;SDS011;6473;51.552;6.716;2023-03-14T01:30:12;1.83;;;1.10;;
12816;SDS011;6473;51.552;6.716;2023-03-14T01:32:40;4.50;;;1.33;;
12816;SDS011;6473;51.552;6.716;2023-03-14T01:35:07;3.95;;;1.10;;
12816;SDS011;6473;51.552;6.716;2023-03-14T01:37:34;6.05;;;1.10;;
12816;SDS011;6473;51.552;6.716;2023-03-14T01:40:03;2.83;;;1.10;;
12816;SDS011;6473;51.552;6.716;2023-03-14T01:42:31;4.85;;;1.80;;
12816;SDS011;6473;51.552;6.716;2023-03-14T01:44:59;5.93;;;1.17;;
12816;SDS011;6473;51.552;6.716;2023-03-14T01:47:29;3.75;;;1.38;;
12816;SDS011;6473;51.552;6.716;2023-03-14T01:49:57;2.15;;;1.20;;
12816;SDS011;6473;51.552;6.716;2023-03-14T01:52:29;4.13;;;1.63;;
12816;SDS011;6473;51.552;6.716;2023-03-14T01:55:02;4.13;;;0.95;;
12816;SDS011;6473;51.552;6.716;2023-03-14T01:57:31;1.75;;;1.02;;
12816;SDS011;6473;51.552;6.716;2023-03-14T02:00:03;1.83;;;1.02;;
12816;SDS011;6473;51.552;6.716;2023-03-14T02:02:40;4.40;;;1.33;;
12816;SDS011;6473;51.552;6.716;2023-03-14T02:05:12;2.58;;;1.10;;
12816;SDS011;6473;51.552;6.716;2023-03-14T02:07:45;1.65;;;1.05;;
12816;SDS011;6473;51.552;6.716;2023-03-14T02:10:21;2.92;;;1.10;;
12816;SDS011;6473;51.552;6.716;2023-03-14T02:12:51;2.00;;;0.93;;
12816;SDS011;6473;51.552;6.716;2023-03-14T02:15:45;6.35;;;1.50;;
12816;SDS011;6473;51.552;6.716;2023-03-14T02:18:26;2.92;;;1.23;;
12816;SDS011;6473;51.552;6.716;2023-03-14T02:21:14;3.72;;;1.10;;
12816;SDS011;6473;51.552;6.716;2023-03-14T02:23:51;4.03;;;1.48;;
12816;SDS011;6473;51.552;6.716;2023-03-14T02:26:34;2.33;;;1.10;;
12816;SDS011;6473;51.552;6.716;2023-03-14T02:29:05;1.65;;;1.15;;
12816;SDS011;6473;51.552;6.716;2023-03-14T02:31:33;1.80;;;1.20;;
12816;SDS011;6473;51.552;6.716;2023-03-14T02:34:04;2.72;;;1.35;;
12816;SDS011;6473;51.552;6.716;2023-03-14T02:36:33;5.05;;;1.13;;
12816;SDS011;6473;51.552;6.716;2023-03-14T02:39:03;2.90;;;1.38;;
12816;SDS011;6473;51.552;6.716;2023-03-14T02:41:38;4.80;;;1.17;;
12816;SDS011;6473;51.552;6.716;2023-03-14T02:44:08;4.00;;;1.40;;
12816;SDS011;6473;51.552;6.716;2023-03-14T02:46:35;3.05;;;1.23;;
12816;SDS011;6473;51.552;6.716;2023-03-14T02:49:03;6.07;;;1.48;;
12816;SDS011;6473;51.552;6.716;2023-03-14T02:51:34;2.47;;;1.27;;
12816;SDS011;6473;51.552;6.716;2023-03-14T02:54:04;2.72;;;1.10;;
12816;SDS011;6473;51.552;6.716;2023-03-14T02:56:33;3.03;;;1.30;;
12816;SDS011;6473;51.552;6.716;2023-03-14T02:59:02;3.30;;;1.33;;
12816;SDS011;6473;51.552;6.716;2023-03-14T03:01:39;4.30;;;1.50;;
12816;SDS011;6473;51.552;6.716;2023-03-14T03:04:07;3.22;;;2.03;;
12816;SDS011;6473;51.552;6.716;2023-03-14T03:06:34;2.72;;;1.40;;
12816;SDS011;6473;51.552;6.716;2023-03-14T03:09:02;3.10;;;1.50;;
12816;SDS011;6473;51.552;6.716;2023-03-14T03:11:32;5.60;;;1.70;;
12816;SDS011;6473;51.552;6.716;2023-03-14T03:13:59;1.98;;;1.33;;
12816;SDS011;6473;51.552;6.716;2023-03-14T03:16:27;2.92;;;1.40;;
12816;SDS011;6473;51.552;6.716;2023-03-14T03:18:56;5.38;;;1.75;;
12816;SDS011;6473;51.552;6.716;2023-03-14T03:21:23;6.55;;;1.90;;
12816;SDS011;6473;51.552;6.716;2023-03-14T03:23:50;2.85;;;1.35;;
12816;SDS011;6473;51.552;6.716;2023-03-14T03:26:17;4.13;;;1.40;;
12816;SDS011;6473;51.552;6.716;2023-03-14T03:28:45;4.28;;;1.40;;
12816;SDS011;6473;51.552;6.716;2023-03-14T03:31:13;5.55;;;1.55;;
12816;SDS011;6473;51.552;6.716;2023-03-14T03:33:41;3.97;;;1.55;;
12816;SDS011;6473;51.552;6.716;2023-03-14T03:36:10;6.25;;;2.20;;
12816;SDS011;6473;51.552;6.716;2023-03-14T03:38:38;4.57;;;1.50;;
12816;SDS011;6473;51.552;6.716;2023-03-14T03:41:06;3.40;;;1.25;;
12816;SDS011;6473;51.552;6.716;2023-03-14T03:43:34;5.25;;;1.98;;
12816;SDS011;6473;51.552;6.716;2023-03-14T03:46:04;4.55;;;1.50;;
12816;SDS011;6473;51.552;6.716;2023-03-14T03:48:33;2.97;;;1.38;;
12816;SDS011;6473;51.552;6.716;2023-03-14T03:51:03;4.70;;;1.30;;
12816;SDS011;6473;51.552;6.716;2023-03-14T03:53:32;5.30;;;1.65;;
12816;SDS011;6473;51.552;6.716;2023-03-14T03:56:19;2.65;;;1.50;;
12816;SDS011;6473;51.552;6.716;2023-03-14T03:58:46;5.35;;;1.50;;
12816;SDS011;6473;51.552;6.716;2023-03-14T04:01:14;3.67;;;1.42;;
12816;SDS011;6473;51.552;6.716;2023-03-14T04:03:45;6.30;;;1.65;;
12816;SDS011;6473;51.552;6.716;2023-03-14T04:06:12;3.83;;;1.40;;
12816;SDS011;6473;51.552;6.716;2023-03-14T04:08:45;2.13;;;1.30;;
12816;SDS011;6473;51.552;6.716;2023-03-14T04:11:25;4.32;;;1.35;;
12816;SDS011;6473;51.552;6.716;2023-03-14T04:14:09;3.90;;;1.20;;
12816;SDS011;6473;51.552;6.716;2023-03-14T04:16:37;3.30;;;1.52;;
12816;SDS011;6473;51.552;6.716;2023-03-14T04:19:10;4.38;;;1.73;;
12816;SDS011;6473;51.552;6.716;2023-03-14T04:21:38;3.97;;;1.30;;
12816;SDS011;6473;51.552;6.716;2023-03-14T04:24:12;4.85;;;1.40;;
12816;SDS011;6473;51.552;6.716;2023-03-14T04:26:40;4.80;;;1.58;;
12816;SDS011;6473;51.552;6.716;2023-03-14T04:29:09;5.35;;;1.60;;
12816;SDS011;6473;51.552;6.716;2023-03-14T04:31:37;3.13;;;1.50;;
12816;SDS011;6473;51.552;6.716;2023-03-14T04:34:04;3.08;;;1.15;;
12816;SDS011;6473;51.552;6.716;2023-03-14T04:36:36;4.15;;;1.90;;
12816;SDS011;6473;51.552;6.716;2023-03-14T04:39:07;3.28;;;1.17;;
12816;SDS011;6473;51.552;6.716;2023-03-14T04:41:39;3.50;;;1.20;;
12816;SDS011;6473;51.552;6.716;2023-03-14T04:44:07;4.45;;;1.38;;
12816;SDS011;6473;51.552;6.716;2023-03-14T04:46:34;2.67;;;1.25;;
12816;SDS011;6473;51.552;6.716;2023-03-14T04:49:04;2.38;;;1.38;;
12816;SDS011;6473;51.552;6.716;2023-03-14T04:51:31;1.85;;;1.00;;
12816;SDS011;6473;51.552;6.716;2023-03-14T04:53:58;3.20;;;1.55;;
12816;SDS011;6473;51.552;6.716;2023-03-14T04:56:25;2.70;;;1.17;;
12816;SDS011;6473;51.552;6.716;2023-03-14T04:58:54;2.15;;;0.80;;
12816;SDS011;6473;51.552;6.716;2023-03-14T05:01:21;1.20;;;0.70;;
12816;SDS011;6473;51.552;6.716;2023-03-14T05:04:11;1.45;;;0.80;;
12816;SDS011;6473;51.552;6.716;2023-03-14T05:07:01;1.30;;;0.85;;
12816;SDS011;6473;51.552;6.716;2023-03-14T05:09:40;2.17;;;1.20;;
12816;SDS011;6473;51.552;6.716;2023-03-14T05:12:46;1.17;;;0.60;;
12816;SDS011;6473;51.552;6.716;2023-03-14T05:15:47;1.55;;;0.90;;
12816;SDS011;6473;51.552;6.716;2023-03-14T05:18:40;1.23;;;0.80;;
12816;SDS011;6473;51.552;6.716;2023-03-14T05:21:27;3.00;;;1.00;;
12816;SDS011;6473;51.552;6.716;2023-03-14T05:24:26;0.70;;;0.70;;
12816;SDS011;6473;51.552;6.716;2023-03-14T05:26:56;1.77;;;0.90;;
12816;SDS011;6473;51.552;6.716;2023-03-14T05:29:35;3.25;;;0.93;;
12816;SDS011;6473;51.552;6.716;2023-03-14T05:32:29;1.83;;;0.95;;
12816;SDS011;6473;51.552;6.716;2023-03-14T05:35:08;2.63;;;0.73;;
12816;SDS011;6473;51.552;6.716;2023-03-14T05:38:05;2.65;;;1.08;;
12816;SDS011;6473;51.552;6.716;2023-03-14T05:40:50;1.55;;;0.75;;
12816;SDS011;6473;51.552;6.716;2023-03-14T05:43:43;1.15;;;0.80;;
12816;SDS011;6473;51.552;6.716;2023-03-14T05:46:29;2.35;;;1.13;;
12816;SDS011;6473;51.552;6.716;2023-03-14T05:49:09;1.80;;;1.38;;
12816;SDS011;6473;51.552;6.716;2023-03-14T05:52:14;2.72;;;1.40;;
12816;SDS011;6473;51.552;6.716;2023-03-14T05:55:00;1.60;;;1.50;;
12816;SDS011;6473;51.552;6.716;2023-03-14T05:57:51;1.75;;;1.35;;
12816;SDS011;6473;51.552;6.716;2023-03-14T06:00:57;2.35;;;1.67;;
12816;SDS011;6473;51.552;6.716;2023-03-14T06:03:39;1.70;;;1.60;;
12816;SDS011;6473;51.552;6.716;2023-03-14T06:06:09;5.13;;;1.80;;
12816;SDS011;6473;51.552;6.716;2023-03-14T06:08:36;1.85;;;1.55;;
12816;SDS011;6473;51.552;6.716;2023-03-14T06:11:08;4.00;;;2.25;;
12816;SDS011;6473;51.552;6.716;2023-03-14T06:13:35;3.08;;;1.65;;
12816;SDS011;6473;51.552;6.716;2023-03-14T06:16:02;2.22;;;1.73;;
12816;SDS011;6473;51.552;6.716;2023-03-14T06:18:29;3.58;;;2.10;;
12816;SDS011;6473;51.552;6.716;2023-03-14T06:20:57;2.83;;;1.63;;
12816;SDS011;6473;51.552;6.716;2023-03-14T06:23:27;2.33;;;1.90;;
12816;SDS011;6473;51.552;6.716;2023-03-14T06:25:56;2.33;;;1.70;;
12816;SDS011;6473;51.552;6.716;2023-03-14T06:28:25;2.65;;;1.80;;
12816;SDS011;6473;51.552;6.716;2023-03-14T06:30:56;5.72;;;2.13;;
12816;SDS011;6473;51.552;6.716;2023-03-14T06:33:23;2.08;;;1.90;;
12816;SDS011;6473;51.552;6.716;2023-03-14T06:35:50;3.75;;;2.13;;
12816;SDS011;6473;51.552;6.716;2023-03-14T06:38:17;3.65;;;2.47;;
12816;SDS011;6473;51.552;6.716;2023-03-14T06:40:46;2.92;;;2.47;;
12816;SDS011;6473;51.552;6.716;2023-03-14T06:43:19;3.55;;;2.95;;
12816;SDS011;6473;51.552;6.716;2023-03-14T06:45:46;2.88;;;2.38;;
12816;SDS011;6473;51.552;6.716;2023-03-14T06:48:13;2.88;;;2.65;;
12816;SDS011;6473;51.552;6.716;2023-03-14T06:50:51;2.25;;;2.15;;
12816;SDS011;6473;51.552;6.716;2023-03-14T06:53:20;3.15;;;2.60;;
12816;SDS011;6473;51.552;6.716;2023-03-14T06:55:49;3.50;;;2.35;;
12816;SDS011;6473;51.552;6.716;2023-03-14T06:58:17;3.28;;;2.28;;
12816;SDS011;6473;51.552;6.716;2023-03-14T07:00:44;2.83;;;2.42;;
12816;SDS011;6473;51.552;6.716;2023-03-14T07:03:15;4.03;;;2.40;;
12816;SDS011;6473;51.552;6.716;2023-03-14T07:05:47;3.63;;;2.17;;
12816;SDS011;6473;51.552;6.716;2023-03-14T07:08:14;3.13;;;2.05;;
12816;SDS011;6473;51.552;6.716;2023-03-14T07:10:41;2.70;;;2.35;;
12816;SDS011;6473;51.552;6.716;2023-03-14T07:13:10;2.50;;;2.30;;
12816;SDS011;6473;51.552;6.716;2023-03-14T07:15:48;4.82;;;2.65;;
12816;SDS011;6473;51.552;6.716;2023-03-14T07:18:15;3.70;;;2.22;;
12816;SDS011;6473;51.552;6.716;2023-03-14T07:20:44;2.20;;;2.00;;
12816;SDS011;6473;51.552;6.716;2023-03-14T07:23:13;2.97;;;2.13;;
12816;SDS011;6473;51.552;6.716;2023-03-14T07:25:46;2.40;;;2.20;;
12816;SDS011;6473;51.552;6.716;2023-03-14T07:28:15;2.80;;;2.20;;
12816;SDS011;6473;51.552;6.716;2023-03-14T07:30:51;3.03;;;2.30;;
12816;SDS011;6473;51.552;6.716;2023-03-14T07:33:26;2.30;;;2.10;;
12816;SDS011;6473;51.552;6.716;2023-03-14T07:35:54;3.55;;;2.10;;
12816;SDS011;6473;51.552;6.716;2023-03-14T07:38:27;2.80;;;1.88;;
12816;SDS011;6473;51.552;6.716;2023-03-14T07:41:19;2.15;;;2.00;;
12816;SDS011;6473;51.552;6.716;2023-03-14T07:44:08;2.55;;;2.35;;
12816;SDS011;6473;51.552;6.716;2023-03-14T07:46:35;2.90;;;2.20;;
12816;SDS011;6473;51.552;6.716;2023-03-14T07:49:02;2.10;;;2.00;;
12816;SDS011;6473;51.552;6.716;2023-03-14T07:51:32;2.10;;;2.00;;
12816;SDS011;6473;51.552;6.716;2023-03-14T07:54:00;1.98;;;1.88;;
12816;SDS011;6473;51.552;6.716;2023-03-14T07:56:27;2.03;;;1.90;;
12816;SDS011;6473;51.552;6.716;2023-03-14T07:58:57;3.70;;;2.20;;
12816;SDS011;6473;51.552;6.716;2023-03-14T08:01:25;2.17;;;1.90;;
12816;SDS011;6473;51.552;6.716;2023-03-14T08:03:52;1.88;;;1.77;;
12816;SDS011;6473;51.552;6.716;2023-03-14T08:06:23;2.78;;;2.45;;
12816;SDS011;6473;51.552;6.716;2023-03-14T08:08:50;2.22;;;1.90;;
12816;SDS011;6473;51.552;6.716;2023-03-14T08:11:17;2.10;;;2.00;;
12816;SDS011;6473;51.552;6.716;2023-03-14T08:13:44;2.15;;;1.98;;
12816;SDS011;6473;51.552;6.716;2023-03-14T08:16:14;2.22;;;2.03;;
12816;SDS011;6473;51.552;6.716;2023-03-14T08:18:43;2.03;;;1.63;;
12816;SDS011;6473;51.552;6.716;2023-03-14T08:21:12;2.00;;;1.90;;
12816;SDS011;6473;51.552;6.716;2023-03-14T08:23:45;2.05;;;1.95;;
12816;SDS011;6473;51.552;6.716;2023-03-14T08:26:12;1.83;;;1.67;;
12816;SDS011;6473;51.552;6.716;2023-03-14T08:28:39;1.90;;;1.80;;
12816;SDS011;6473;51.552;6.716;2023-03-14T08:31:06;1.90;;;1.80;;
12816;SDS011;6473;51.552;6.716;2023-03-14T08:33:34;1.90;;;1.80;;
12816;SDS011;6473;51.552;6.716;2023-03-14T08:36:02;1.45;;;1.35;;
12816;SDS011;6473;51.552;6.716;2023-03-14T08:38:29;1.73;;;1.63;;
12816;SDS011;6473;51.552;6.716;2023-03-14T08:40:56;1.80;;;1.70;;
12816;SDS011;6473;51.552;6.716;2023-03-14T08:43:24;1.63;;;1.50;;
12816;SDS011;6473;51.552;6.716;2023-03-14T08:45:51;1.73;;;1.63;;
12816;SDS011;6473;51.552;6.716;2023-03-14T08:48:18;1.40;;;1.30;;
12816;SDS011;6473;51.552;6.716;2023-03-14T08:50:46;1.00;;;1.00;;
12816;SDS011;6473;51.552;6.716;2023-03-14T08:53:14;1.10;;;1.10;;
12816;SDS011;6473;51.552;6.716;2023-03-14T08:55:41;1.30;;;1.10;;
12816;SDS011;6473;51.552;6.716;2023-03-14T08:58:08;0.90;;;0.90;;
12816;SDS011;6473;51.552;6.716;2023-03-14T09:00:35;1.20;;;1.20;;
12816;SDS011;6473;51.552;6.716;2023-03-14T09:03:02;0.70;;;0.70;;
12816;SDS011;6473;51.552;6.716;2023-03-14T09:05:32;0.77;;;0.50;;
12816;SDS011;6473;51.552;6.716;2023-03-14T09:07:59;0.40;;;0.40;;
12816;SDS011;6473;51.552;6.716;2023-03-14T09:10:28;0.63;;;0.30;;
12816;SDS011;6473;51.552;6.716;2023-03-14T09:12:55;1.60;;;0.50;;
12816;SDS011;6473;51.552;6.716;2023-03-14T09:15:22;0.85;;;0.30;;
12816;SDS011;6473;51.552;6.716;2023-03-14T09:17:49;1.88;;;0.55;;
12816;SDS011;6473;51.552;6.716;2023-03-14T09:20:16;0.73;;;0.35;;
12816;SDS011;6473;51.552;6.716;2023-03-14T09:22:43;0.93;;;0.50;;
12816;SDS011;6473;51.552;6.716;2023-03-14T09:25:10;1.38;;;0.60;;
12816;SDS011;6473;51.552;6.716;2023-03-14T09:27:39;0.45;;;0.35;;
12816;SDS011;6473;51.552;6.716;2023-03-14T09:30:07;0.50;;;0.50;;
12816;SDS011;6473;51.552;6.716;2023-03-14T09:32:35;0.70;;;0.70;;
12816;SDS011;6473;51.552;6.716;2023-03-14T09:35:02;0.70;;;0.70;;
12816;SDS011;6473;51.552;6.716;2023-03-14T09:37:29;0.70;;;0.70;;
12816;SDS011;6473;51.552;6.716;2023-03-14T09:39:56;1.25;;;0.60;;
12816;SDS011;6473;51.552;6.716;2023-03-14T09:42:25;1.38;;;0.98;;
12816;SDS011;6473;51.552;6.716;2023-03-14T09:44:56;0.98;;;0.85;;
12816;SDS011;6473;51.552;6.716;2023-03-14T09:47:28;0.80;;;0.80;;
12816;SDS011;6473;51.552;6.716;2023-03-14T09:49:56;0.90;;;0.90;;
12816;SDS011;6473;51.552;6.716;2023-03-14T09:52:26;0.90;;;0.90;;
12816;SDS011;6473;51.552;6.716;2023-03-14T09:54:58;1.45;;;1.10;;
12816;SDS011;6473;51.552;6.716;2023-03-14T09:57:29;1.20;;;1.10;;
12816;SDS011;6473;51.552;6.716;2023-03-14T10:00:00;2.00;;;1.30;;
12816;SDS011;6473;51.552;6.716;2023-03-14T10:02:38;1.13;;;1.13;;
12816;SDS011;6473;51.552;6.716;2023-03-14T10:05:13;1.52;;;1.45;;
12816;SDS011;6473;51.552;6.716;2023-03-14T10:07:41;1.33;;;1.23;;
12816;SDS011;6473;51.552;6.716;2023-03-14T10:10:10;1.10;;;1.00;;
12816;SDS011;6473;51.552;6.716;2023-03-14T10:12:39;1.17;;;1.00;;
12816;SDS011;6473;51.552;6.716;2023-03-14T10:15:09;1.17;;;1.13;;
12816;SDS011;6473;51.552;6.716;2023-03-14T10:17:40;1.52;;;1.00;;
12816;SDS011;6473;51.552;6.716;2023-03-14T10:20:25;0.90;;;0.90;;
12816;SDS011;6473;51.552;6.716;2023-03-14T10:22:57;0.82;;;0.80;;
12816;SDS011;6473;51.552;6.716;2023-03-14T10:25:26;2.20;;;1.13;;
12816;SDS011;6473;51.552;6.716;2023-03-14T10:27:54;2.42;;;0.90;;
12816;SDS011;6473;51.552;6.716;2023-03-14T10:30:32;1.98;;;1.00;;
12816;SDS011;6473;51.552;6.716;2023-03-14T10:33:09;2.92;;;1.30;;
12816;SDS011;6473;51.552;6.716;2023-03-14T10:35:37;1.55;;;1.17;;
12816;SDS011;6473;51.552;6.716;2023-03-14T10:38:04;1.02;;;0.95;;
12816;SDS011;6473;51.552;6.716;2023-03-14T10:40:31;0.98;;;0.98;;
12816;SDS011;6473;51.552;6.716;2023-03-14T10:43:04;1.67;;;0.95;;
12816;SDS011;6473;51.552;6.716;2023-03-14T10:45:34;3.28;;;1.00;;
12816;SDS011;6473;51.552;6.716;2023-03-14T10:48:15;0.73;;;0.73;;
12816;SDS011;6473;51.552;6.716;2023-03-14T10:50:55;2.53;;;0.63;;
12816;SDS011;6473;51.552;6.716;2023-03-14T10:53:24;1.92;;;0.70;;
12816;SDS011;6473;51.552;6.716;2023-03-14T10:55:52;1.40;;;1.05;;
12816;SDS011;6473;51.552;6.716;2023-03-14T10:58:23;0.70;;;0.70;;
12816;SDS011;6473;51.552;6.716;2023-03-14T11:01:02;0.90;;;0.90;;
12816;SDS011;6473;51.552;6.716;2023-03-14T11:03:36;1.98;;;0.75;;
12816;SDS011;6473;51.552;6.716;2023-03-14T11:06:09;1.45;;;1.00;;
12816;SDS011;6473;51.552;6.716;2023-03-14T11:08:44;0.85;;;0.85;;
12816;SDS011;6473;51.552;6.716;2023-03-14T11:11:16;1.95;;;0.88;;
12816;SDS011;6473;51.552;6.716;2023-03-14T11:13:50;1.58;;;1.00;;
12816;SDS011;6473;51.552;6.716;2023-03-14T11:16:31;3.00;;;1.05;;
12816;SDS011;6473;51.552;6.716;2023-03-14T11:19:10;1.00;;;0.70;;
12816;SDS011;6473;51.552;6.716;2023-03-14T11:21:45;0.65;;;0.60;;
12816;SDS011;6473;51.552;6.716;2023-03-14T11:24:25;0.98;;;0.68;;
12816;SDS011;6473;51.552;6.716;2023-03-14T11:27:03;1.77;;;0.70;;
12816;SDS011;6473;51.552;6.716;2023-03-14T11:29:36;2.40;;;0.88;;
12816;SDS011;6473;51.552;6.716;2023-03-14T11:32:12;0.82;;;0.82;;
12816;SDS011;6473;51.552;6.716;2023-03-14T11:34:42;2.42;;;0.70;;
12816;SDS011;6473;51.552;6.716;2023-03-14T11:37:17;2.47;;;0.70;;
12816;SDS011;6473;51.552;6.716;2023-03-14T11:39:52;1.38;;;1.00;;
12816;SDS011;6473;51.552;6.716;2023-03-14T11:42:25;3.00;;;1.42;;
12816;SDS011;6473;51.552;6.716;2023-03-14T11:44:53;6.10;;;1.73;;
12816;SDS011;6473;51.552;6.716;2023-03-14T11:47:24;2.40;;;1.10;;
12816;SDS011;6473;51.552;6.716;2023-03-14T11:49:57;2.28;;;0.77;;
12816;SDS011;6473;51.552;6.716;2023-03-14T11:52:29;2.40;;;1.02;;
12816;SDS011;6473;51.552;6.716;2023-03-14T11:55:00;3.17;;;1.25;;
12816;SDS011;6473;51.552;6.716;2023-03-14T11:57:32;1.98;;;0.77;;
12816;SDS011;6473;51.552;6.716;2023-03-14T12:00:00;5.25;;;1.30;;
12816;SDS011;6473;51.552;6.716;2023-03-14T12:02:42;1.95;;;0.93;;
12816;SDS011;6473;51.552;6.716;2023-03-14T12:05:24;3.28;;;1.23;;
12816;SDS011;6473;51.552;6.716;2023-03-14T12:08:03;3.47;;;1.42;;
12816;SDS011;6473;51.552;6.716;2023-03-14T12:10:58;2.83;;;1.15;;
12816;SDS011;6473;51.552;6.716;2023-03-14T12:13:30;7.25;;;1.60;;
12816;SDS011;6473;51.552;6.716;2023-03-14T12:16:00;3.13;;;1.27;;
12816;SDS011;6473;51.552;6.716;2023-03-14T12:18:33;3.85;;;1.30;;
12816;SDS011;6473;51.552;6.716;2023-03-14T12:21:04;4.45;;;1.40;;
12816;SDS011;6473;51.552;6.716;2023-03-14T12:23:34;2.70;;;1.08;;
12816;SDS011;6473;51.552;6.716;2023-03-14T12:26:08;5.55;;;1.77;;
12816;SDS011;6473;51.552;6.716;2023-03-14T12:28:42;5.50;;;1.60;;
12816;SDS011;6473;51.552;6.716;2023-03-14T12:34:23;4.78;;;1.50;;
12816;SDS011;6473;51.552;6.716;2023-03-14T12:39:58;6.75;;;1.60;;
12816;SDS011;6473;51.552;6.716;2023-03-14T12:42:43;8.10;;;1.70;;
12816;SDS011;6473;51.552;6.716;2023-03-14T12:45:22;9.13;;;1.75;;
12816;SDS011;6473;51.552;6.716;2023-03-14T12:47:55;6.10;;;1.80;;
12816;SDS011;6473;51.552;6.716;2023-03-14T12:50:33;6.28;;;2.08;;
12816;SDS011;6473;51.552;6.716;2023-03-14T12:53:21;7.20;;;1.88;;
12816;SDS011;6473;51.552;6.716;2023-03-14T12:56:15;8.30;;;2.03;;
12816;SDS011;6473;51.552;6.716;2023-03-14T13:01:56;7.20;;;1.88;;
12816;SDS011;6473;51.552;6.716;2023-03-14T13:04:28;11.52;;;2.60;;
12816;SDS011;6473;51.552;6.716;2023-03-14T13:07:00;8.75;;;1.92;;
12816;SDS011;6473;51.552;6.716;2023-03-14T13:12:48;9.27;;;2.25;;
12816;SDS011;6473;51.552;6.716;2023-03-14T13:15:18;9.20;;;2.08;;
12816;SDS011;6473;51.552;6.716;2023-03-14T13:17:49;8.00;;;2.25;;
12816;SDS011;6473;51.552;6.716;2023-03-14T13:20:19;12.68;;;2.05;;
12816;SDS011;6473;51.552;6.716;2023-03-14T13:22:52;10.35;;;2.97;;
12816;SDS011;6473;51.552;6.716;2023-03-14T13:25:19;8.02;;;1.98;;
12816;SDS011;6473;51.552;6.716;2023-03-14T13:27:48;9.68;;;2.28;;
12816;SDS011;6473;51.552;6.716;2023-03-14T13:30:16;8.75;;;2.08;;
12816;SDS011;6473;51.552;6.716;2023-03-14T13:32:46;10.52;;;2.20;;
12816;SDS011;6473;51.552;6.716;2023-03-14T13:35:19;7.38;;;2.22;;
12816;SDS011;6473;51.552;6.716;2023-03-14T13:37:53;6.95;;;2.13;;
12816;SDS011;6473;51.552;6.716;2023-03-14T13:40:26;6.43;;;2.05;;
12816;SDS011;6473;51.552;6.716;2023-03-14T13:43:00;10.07;;;2.38;;
12816;SDS011;6473;51.552;6.716;2023-03-14T13:45:29;7.60;;;2.33;;
12816;SDS011;6473;51.552;6.716;2023-03-14T13:47:56;9.27;;;1.80;;
12816;SDS011;6473;51.552;6.716;2023-03-14T13:50:23;8.15;;;1.65;;
12816;SDS011;6473;51.552;6.716;2023-03-14T13:52:56;6.03;;;2.10;;
12816;SDS011;6473;51.552;6.716;2023-03-14T13:55:23;4.78;;;1.70;;
12816;SDS011;6473;51.552;6.716;2023-03-14T13:57:52;6.65;;;1.65;;
12816;SDS011;6473;51.552;6.716;2023-03-14T14:00:21;5.07;;;1.60;;
12816;SDS011;6473;51.552;6.716;2023-03-14T14:02:52;5.55;;;1.67;;
12816;SDS011;6473;51.552;6.716;2023-03-14T14:05:20;4.07;;;1.42;;
12816;SDS011;6473;51.552;6.716;2023-03-14T14:07:48;3.92;;;1.60;;
12816;SDS011;6473;51.552;6.716;2023-03-14T14:10:17;7.85;;;1.85;;
12816;SDS011;6473;51.552;6.716;2023-03-14T14:12:45;4.90;;;1.58;;
12816;SDS011;6473;51.552;6.716;2023-03-14T14:15:16;7.68;;;1.90;;
12816;SDS011;6473;51.552;6.716;2023-03-14T14:17:48;4.32;;;2.13;;
12816;SDS011;6473;51.552;6.716;2023-03-14T14:20:25;4.25;;;1.45;;
12816;SDS011;6473;51.552;6.716;2023-03-14T14:22:57;5.40;;;1.95;;
12816;SDS011;6473;51.552;6.716;2023-03-14T14:25:26;3.15;;;1.50;;
12816;SDS011;6473;51.552;6.716;2023-03-14T14:27:54;6.15;;;1.60;;
12816;SDS011;6473;51.552;6.716;2023-03-14T14:30:27;2.60;;;1.30;;
12816;SDS011;6473;51.552;6.716;2023-03-14T14:33:10;4.78;;;1.88;;
12816;SDS011;6473;51.552;6.716;2023-03-14T14:35:44;4.55;;;1.50;;
12816;SDS011;6473;51.552;6.716;2023-03-14T14:38:17;7.07;;;1.95;;
12816;SDS011;6473;51.552;6.716;2023-03-14T14:40:48;3.33;;;1.50;;
12816;SDS011;6473;51.552;6.716;2023-03-14T14:43:17;5.07;;;1.65;;
12816;SDS011;6473;51.552;6.716;2023-03-14T14:45:47;4.30;;;1.75;;
12816;SDS011;6473;51.552;6.716;2023-03-14T14:48:18;2.97;;;1.48;;
12816;SDS011;6473;51.552;6.716;2023-03-14T14:50:54;6.63;;;1.70;;
12816;SDS011;6473;51.552;6.716;2023-03-14T14:53:23;7.57;;;1.90;;
12816;SDS011;6473;51.552;6.716;2023-03-14T14:55:56;4.50;;;1.50;;
12816;SDS011;6473;51.552;6.716;2023-03-14T14:58:25;4.22;;;1.63;;
12816;SDS011;6473;51.552;6.716;2023-03-14T15:00:54;7.15;;;1.80;;
12816;SDS011;6473;51.552;6.716;2023-03-14T15:03:25;8.15;;;1.73;;
12816;SDS011;6473;51.552;6.716;2023-03-14T15:05:54;5.40;;;1.55;;
12816;SDS011;6473;51.552;6.716;2023-03-14T15:08:22;2.60;;;1.60;;
12816;SDS011;6473;51.552;6.716;2023-03-14T15:10:51;2.70;;;1.50;;
12816;SDS011;6473;51.552;6.716;2023-03-14T15:13:20;3.10;;;1.27;;
12816;SDS011;6473;51.552;6.716;2023-03-14T15:15:46;1.88;;;1.20;;
12816;SDS011;6473;51.552;6.716;2023-03-14T15:18:15;3.47;;;1.52;;
12816;SDS011;6473;51.552;6.716;2023-03-14T15:20:44;2.90;;;1.50;;
12816;SDS011;6473;51.552;6.716;2023-03-14T15:23:11;3.72;;;1.48;;
12816;SDS011;6473;51.552;6.716;2023-03-14T15:25:38;5.13;;;1.10;;
12816;SDS011;6473;51.552;6.716;2023-03-14T15:28:13;4.47;;;1.25;;
12816;SDS011;6473;51.552;6.716;2023-03-14T15:30:44;4.18;;;1.27;;
12816;SDS011;6473;51.552;6.716;2023-03-14T15:33:11;3.22;;;1.27;;
12816;SDS011;6473;51.552;6.716;2023-03-14T15:35:38;4.32;;;1.52;;
12816;SDS011;6473;51.552;6.716;2023-03-14T15:38:08;4.65;;;1.40;;
12816;SDS011;6473;51.552;6.716;2023-03-14T15:40:37;5.40;;;1.67;;